Affton, MO

6:42 PM CST on December 17, 2014 (GMT -0600)
Lambert-Saint Louis International | Change Station
CLOSE
Current Station
Airport
Location: St. Louis,
Elevation: 564 ft
Nearby Weather Stations

Elev 564 ft 38.75 °N, 90.37 °W | Updated 51 minutes ago

Mostly Cloudy
Mostly Cloudy
36 °F
Feels Like 33 °F
N
4
Wind Variable Wind from North

Today
High -- | Low -- °F
--% Chance of Precip.
Yesterday
High -- | Low -- °F
Precip. -- in
7:12 AM 4:41 PM
Waning Crescent, 18% visible
Pressure 30.32 in
Visibility 10.0 miles
Clouds Mostly Cloudy 13000 ft
Mostly Cloudy 25000 ft
Windchill 33 °F
Dew Point 24 °F
Humidity 62%
Rainfall 0.00 in
Snow Depth Not available.
UV 0 out of 12
Pollen 1.80 out of 12
Air Quality Not available.
Flu Activity Not available.
METAR KSTL 172351Z 35003KT 10SM BKN130 BKN250 02/M04 A3029 RMK AO2 SLP267 T00221044 10039 20022 51002

More Conditions Fewer Conditions

Pressure 30.32 in
Visibility 10.0 miles
Clouds Mostly Cloudy 13000 ft
Mostly Cloudy 25000 ft
Windchill 33 °F
Dew Point 24 °F
Humidity 62%
Rainfall 0.00 in
Snow Depth Not available.
UV 0 out of 12
Pollen 1.80 out of 12
Air Quality Not available.
Flu Activity Not available.
METAR KSTL 172351Z 35003KT 10SM BKN130 BKN250 02/M04 A3029 RMK AO2 SLP267 T00221044 10039 20022 51002

More Conditions Fewer Conditions

10-Day Weather Forecast

Almanac

Astronomy

Dec. 17, 2014 Rise Set
Actual Time
Civil Twilight
Nautical Twilight
Astronomical Twilight
Moon
Length of Visible Light
Length of Day
Tomorrow will be .
, % of the Moon is Illuminated

Today's Extremes

State Highs State Lows

Community

WunderPhotos

Upload Photos

1,778,837 photos uploaded!

WunderBlogs® & News

Nearby

Air Quality

  Air Quality AQ Index Pollutant
Not available.

Snow Depth

Station Depth Elevation

Earthquake Activity

City Distance Mag. Time & Date
Minimum magnitude displayed is 2.5.

Coastal Water Temperatures

Place Temperature

Nearby Weather Stations